createdAt,value
2019-01-26T00:00:09.530Z,8.03
2019-01-26T00:02:39.394Z,7.28
2019-01-26T00:05:08.047Z,7.47
2019-01-26T00:07:37.062Z,7.25
2019-01-26T00:10:06.330Z,6.85
2019-01-26T00:12:34.459Z,6.50
2019-01-26T00:15:03.006Z,8.78
2019-01-26T00:17:32.263Z,5.53
2019-01-26T00:19:59.954Z,6.65
2019-01-26T00:22:27.958Z,6.75
2019-01-26T00:24:56.443Z,7.33
2019-01-26T00:27:24.557Z,7.30
2019-01-26T00:29:52.388Z,6.85
2019-01-26T00:32:20.088Z,6.58
2019-01-26T00:34:48.110Z,6.75
2019-01-26T00:37:16.002Z,7.72
2019-01-26T00:39:45.145Z,7.62
2019-01-26T00:42:13.892Z,7.20
2019-01-26T00:44:41.937Z,7.90
2019-01-26T00:47:09.990Z,7.40
2019-01-26T00:49:38.975Z,7.37
2019-01-26T00:52:06.835Z,7.85
2019-01-26T00:54:34.543Z,9.15
2019-01-26T00:57:02.697Z,7.40
2019-01-26T00:59:30.779Z,6.92
2019-01-26T01:01:59.110Z,7.62
2019-01-26T01:04:28.337Z,6.75
2019-01-26T01:06:56.019Z,8.30
2019-01-26T01:09:23.971Z,8.80
2019-01-26T01:11:51.834Z,8.23
2019-01-26T01:14:19.718Z,8.13
2019-01-26T01:16:47.550Z,8.25
2019-01-26T01:19:15.497Z,7.65
2019-01-26T01:21:43.311Z,8.48
2019-01-26T01:24:11.094Z,6.85
2019-01-26T01:26:39.030Z,7.53
2019-01-26T01:29:06.902Z,8.08
2019-01-26T01:31:34.775Z,6.95
2019-01-26T01:34:02.732Z,8.25
2019-01-26T01:36:31.753Z,7.83
2019-01-26T01:38:59.520Z,8.68
2019-01-26T01:41:31.552Z,9.73
2019-01-26T01:43:59.332Z,8.85
2019-01-26T01:46:27.311Z,9.20
2019-01-26T01:48:55.368Z,8.98
2019-01-26T01:51:25.074Z,8.35
2019-01-26T01:53:52.851Z,8.18
2019-01-26T01:56:21.242Z,9.30
2019-01-26T01:58:48.990Z,9.55
2019-01-26T02:04:04.394Z,10.30
2019-01-26T02:06:32.290Z,8.88
2019-01-26T02:09:00.182Z,10.70
2019-01-26T02:11:27.884Z,8.50
2019-01-26T02:14:00.404Z,10.30
2019-01-26T02:16:28.308Z,8.73
2019-01-26T02:18:57.349Z,10.78
2019-01-26T02:21:25.296Z,11.45
2019-01-26T02:23:53.109Z,9.20
2019-01-26T02:26:24.710Z,12.07
2019-01-26T02:28:52.582Z,10.63
2019-01-26T02:31:20.410Z,10.13
2019-01-26T02:33:50.337Z,10.80
2019-01-26T02:36:18.214Z,9.80
2019-01-26T02:38:46.009Z,11.80
2019-01-26T02:41:14.850Z,10.40
2019-01-26T02:43:43.099Z,10.72
2019-01-26T02:46:10.890Z,10.48
2019-01-26T02:48:38.695Z,9.83
2019-01-26T02:51:09.486Z,10.28
2019-01-26T02:53:37.450Z,10.48
2019-01-26T02:56:05.322Z,11.50
2019-01-26T02:58:33.017Z,10.25
2019-01-26T03:01:01.048Z,10.70
2019-01-26T03:03:28.822Z,11.95
2019-01-26T03:05:56.686Z,12.60
2019-01-26T03:08:24.371Z,11.08
2019-01-26T03:10:52.582Z,10.60
2019-01-26T03:13:20.635Z,10.40
2019-01-26T03:15:48.591Z,11.33
2019-01-26T03:18:16.351Z,10.85
2019-01-26T03:20:44.385Z,12.53
2019-01-26T03:23:12.519Z,10.18
2019-01-26T03:25:40.770Z,10.50
2019-01-26T03:28:14.377Z,10.70
2019-01-26T03:30:43.168Z,13.20
2019-01-26T03:33:10.873Z,12.60
2019-01-26T03:35:38.703Z,12.30
2019-01-26T03:38:06.670Z,11.60
2019-01-26T03:40:34.600Z,12.88
2019-01-26T03:43:02.420Z,11.75
2019-01-26T03:45:30.467Z,11.63
2019-01-26T03:47:58.598Z,12.47
2019-01-26T03:50:26.487Z,15.20
2019-01-26T03:52:54.414Z,13.80
2019-01-26T03:55:22.197Z,14.23
2019-01-26T03:57:50.982Z,14.50
2019-01-26T04:00:21.099Z,13.48
2019-01-26T04:02:48.909Z,13.72
2019-01-26T04:05:17.239Z,14.30
2019-01-26T04:07:45.701Z,13.22
2019-01-26T04:10:14.652Z,14.23
2019-01-26T04:12:42.743Z,14.75
2019-01-26T04:15:13.291Z,14.28
2019-01-26T04:17:41.348Z,15.28
2019-01-26T04:20:12.049Z,15.50
2019-01-26T04:22:41.063Z,16.25
2019-01-26T04:25:09.098Z,17.17
2019-01-26T04:27:37.157Z,14.38
2019-01-26T04:30:06.827Z,15.60
2019-01-26T04:32:34.568Z,18.15
2019-01-26T04:35:02.503Z,17.20
2019-01-26T04:37:30.377Z,15.20
2019-01-26T04:39:58.058Z,18.80
2019-01-26T04:42:26.007Z,16.85
2019-01-26T04:44:54.264Z,16.48
2019-01-26T04:47:30.554Z,15.60
2019-01-26T04:49:55.764Z,16.80
2019-01-26T04:52:23.556Z,14.25
2019-01-26T04:54:51.920Z,16.87
2019-01-26T04:57:21.014Z,17.52
2019-01-26T04:59:50.122Z,18.07
2019-01-26T05:02:17.884Z,18.67
2019-01-26T05:04:45.871Z,18.50
2019-01-26T05:07:13.679Z,20.00
2019-01-26T05:09:41.573Z,17.90
2019-01-26T05:12:10.580Z,18.12
2019-01-26T05:14:38.549Z,19.52
2019-01-26T05:17:10.550Z,17.15
2019-01-26T05:19:38.352Z,17.70
2019-01-26T05:22:07.450Z,17.92
2019-01-26T05:24:35.377Z,19.27
2019-01-26T05:27:03.193Z,18.98
2019-01-26T05:29:31.233Z,14.98
2019-01-26T05:31:59.264Z,18.00
2019-01-26T05:34:27.185Z,18.05
2019-01-26T05:36:55.056Z,19.05
2019-01-26T05:39:22.844Z,21.68
2019-01-26T05:41:50.813Z,22.85
2019-01-26T05:44:18.572Z,19.05
2019-01-26T05:46:46.563Z,19.10
2019-01-26T05:49:14.308Z,18.50
2019-01-26T05:51:53.906Z,21.60
2019-01-26T05:54:22.013Z,20.90
2019-01-26T05:56:49.909Z,20.17
2019-01-26T05:59:17.650Z,20.85
2019-01-26T06:01:46.024Z,21.05
2019-01-26T06:04:13.855Z,20.00
2019-01-26T06:06:45.043Z,21.82
2019-01-26T06:09:13.003Z,21.52
2019-01-26T06:11:42.851Z,21.07
2019-01-26T06:14:10.586Z,20.48
2019-01-26T06:16:38.313Z,21.73
2019-01-26T06:19:06.513Z,21.73
2019-01-26T06:21:34.581Z,21.90
2019-01-26T06:24:02.437Z,18.07
2019-01-26T06:26:34.068Z,22.60
2019-01-26T06:29:01.951Z,20.82
2019-01-26T06:31:29.833Z,23.90
2019-01-26T06:33:57.719Z,19.02
2019-01-26T06:36:25.478Z,22.73
2019-01-26T06:38:53.588Z,22.75
2019-01-26T06:41:21.233Z,23.92
2019-01-26T06:43:52.431Z,23.70
2019-01-26T06:46:20.139Z,19.77
2019-01-26T06:48:50.052Z,25.10
2019-01-26T06:51:18.904Z,17.73
2019-01-26T06:53:46.709Z,19.45
2019-01-26T06:56:14.627Z,22.07
2019-01-26T06:58:45.847Z,26.52
2019-01-26T07:01:17.801Z,23.55
2019-01-26T07:03:46.155Z,26.60
2019-01-26T07:06:18.138Z,29.32
2019-01-26T07:08:46.242Z,26.85
2019-01-26T07:11:14.127Z,27.25
2019-01-26T07:13:42.068Z,24.90
2019-01-26T07:16:09.935Z,27.95
2019-01-26T07:18:38.099Z,24.63
2019-01-26T07:21:06.115Z,25.95
2019-01-26T07:23:34.242Z,25.92
2019-01-26T07:26:01.951Z,24.20
2019-01-26T07:28:30.044Z,25.48
2019-01-26T07:30:57.884Z,25.75
2019-01-26T07:33:26.901Z,25.70
2019-01-26T07:35:54.936Z,25.65
2019-01-26T07:38:23.140Z,24.70
2019-01-26T07:40:51.001Z,28.00
2019-01-26T07:43:20.116Z,26.97
2019-01-26T07:45:47.922Z,26.42
2019-01-26T07:48:21.455Z,25.60
2019-01-26T07:50:49.389Z,23.38
2019-01-26T07:53:18.502Z,22.65
2019-01-26T07:55:46.407Z,22.32
2019-01-26T07:58:15.499Z,26.17
2019-01-26T08:00:43.246Z,23.07
2019-01-26T08:03:12.039Z,22.70
2019-01-26T08:05:44.563Z,25.88
2019-01-26T08:08:13.502Z,25.27
2019-01-26T08:10:43.336Z,27.67
2019-01-26T08:13:11.268Z,25.95
2019-01-26T08:15:39.211Z,25.68
2019-01-26T08:18:13.233Z,27.22
2019-01-26T08:20:42.294Z,27.45
2019-01-26T08:23:10.124Z,26.68
2019-01-26T08:25:39.113Z,26.90
2019-01-26T08:28:09.743Z,24.30
2019-01-26T08:30:37.708Z,28.12
2019-01-26T08:33:08.968Z,31.33
2019-01-26T08:35:36.890Z,23.85
2019-01-26T08:38:05.003Z,26.42
2019-01-26T08:40:33.712Z,26.35
2019-01-26T08:43:02.585Z,24.77
2019-01-26T08:45:30.670Z,26.48
2019-01-26T08:48:01.686Z,24.65
2019-01-26T08:50:29.787Z,26.05
2019-01-26T08:52:57.623Z,28.05
2019-01-26T08:55:25.412Z,27.62
2019-01-26T08:57:53.419Z,26.80
2019-01-26T09:00:23.403Z,24.82
2019-01-26T09:03:11.685Z,26.60
2019-01-26T09:05:51.593Z,25.55
2019-01-26T09:08:19.634Z,27.90
2019-01-26T09:10:47.433Z,27.60
2019-01-26T09:13:16.167Z,27.20
2019-01-26T09:15:44.139Z,26.82
2019-01-26T09:18:11.987Z,24.80
2019-01-26T09:20:39.891Z,27.27
2019-01-26T09:23:07.993Z,24.82
2019-01-26T09:25:35.982Z,22.48
2019-01-26T09:28:06.072Z,25.48
2019-01-26T09:30:34.062Z,24.12
2019-01-26T09:33:03.293Z,26.30
2019-01-26T09:35:32.537Z,23.55
2019-01-26T09:38:00.648Z,25.00
2019-01-26T09:40:28.598Z,26.20
2019-01-26T09:42:58.807Z,26.37
2019-01-26T09:45:29.531Z,25.02
2019-01-26T09:47:57.276Z,27.13
2019-01-26T09:50:25.229Z,24.50
2019-01-26T09:52:53.092Z,26.27
2019-01-26T09:55:22.227Z,24.90
2019-01-26T09:57:50.274Z,21.27
2019-01-26T10:00:21.020Z,19.40
2019-01-26T10:02:49.149Z,23.45
2019-01-26T10:05:20.619Z,23.73
2019-01-26T10:07:49.646Z,21.45
2019-01-26T10:10:18.000Z,23.42
2019-01-26T10:12:47.297Z,25.08
2019-01-26T10:15:15.758Z,24.50
2019-01-26T10:17:45.959Z,23.40
2019-01-26T10:20:18.578Z,26.20
2019-01-26T10:22:46.447Z,23.85
2019-01-26T10:25:16.839Z,22.73
2019-01-26T10:27:44.898Z,25.52
2019-01-26T10:30:25.912Z,25.35
2019-01-26T10:32:53.708Z,23.62
2019-01-26T10:35:33.533Z,24.27
2019-01-26T10:38:01.379Z,23.62
2019-01-26T10:40:54.932Z,23.80
2019-01-26T10:43:24.004Z,24.32
2019-01-26T10:45:51.921Z,23.47
2019-01-26T10:48:19.976Z,23.30
2019-01-26T10:50:47.673Z,23.98
2019-01-26T10:53:18.878Z,23.07
2019-01-26T10:55:46.859Z,20.57
2019-01-26T10:58:14.947Z,21.82
2019-01-26T11:00:42.895Z,22.27
2019-01-26T11:03:10.769Z,22.95
2019-01-26T11:05:41.666Z,24.07
2019-01-26T11:08:09.839Z,21.93
2019-01-26T11:10:37.779Z,25.23
2019-01-26T11:13:05.960Z,21.85
2019-01-26T11:15:34.015Z,21.40
2019-01-26T11:18:01.980Z,22.02
2019-01-26T11:20:29.943Z,22.77
2019-01-26T11:22:57.854Z,25.05
2019-01-26T11:25:26.909Z,25.25
2019-01-26T11:27:55.065Z,25.23
2019-01-26T11:30:27.218Z,22.48
2019-01-26T11:32:55.056Z,19.10
2019-01-26T11:35:26.206Z,22.10
2019-01-26T11:37:54.103Z,20.60
2019-01-26T11:40:22.229Z,21.97
2019-01-26T11:42:50.338Z,24.18
2019-01-26T11:45:28.563Z,25.45
2019-01-26T11:47:57.208Z,24.27
2019-01-26T11:50:33.659Z,22.90
2019-01-26T11:53:02.787Z,23.87
2019-01-26T11:55:44.093Z,25.92
2019-01-26T11:58:13.879Z,24.55
2019-01-26T12:01:04.640Z,24.45
2019-01-26T12:03:40.067Z,23.25
2019-01-26T12:06:11.621Z,24.63
2019-01-26T12:08:40.017Z,26.12
2019-01-26T12:11:08.158Z,26.05
2019-01-26T12:13:37.138Z,22.20
2019-01-26T12:16:05.027Z,24.95
2019-01-26T12:18:32.791Z,24.30
2019-01-26T12:21:02.770Z,23.40
2019-01-26T12:23:30.708Z,23.15
2019-01-26T12:26:00.168Z,19.95
2019-01-26T12:28:29.259Z,23.47
2019-01-26T12:31:04.471Z,23.92
2019-01-26T12:33:32.252Z,23.75
2019-01-26T12:36:00.068Z,27.77
2019-01-26T12:38:27.968Z,23.25
2019-01-26T12:40:58.850Z,21.57
2019-01-26T12:43:26.892Z,22.42
2019-01-26T12:45:55.782Z,22.87
2019-01-26T12:48:23.641Z,24.00
2019-01-26T12:50:51.358Z,22.80
2019-01-26T12:53:20.169Z,23.70
2019-01-26T12:55:50.650Z,26.05
2019-01-26T12:58:18.925Z,22.35
2019-01-26T13:00:48.965Z,27.17
2019-01-26T13:03:17.216Z,23.00
2019-01-26T13:05:44.920Z,29.07
2019-01-26T13:08:13.942Z,36.53
2019-01-26T13:10:45.849Z,25.50
2019-01-26T13:13:13.810Z,30.10
2019-01-26T13:15:43.791Z,23.65
2019-01-26T13:18:12.061Z,24.47
2019-01-26T13:20:40.166Z,24.60
2019-01-26T13:23:08.020Z,23.95
2019-01-26T13:25:35.813Z,25.45
2019-01-26T13:28:04.123Z,28.90
2019-01-26T13:30:31.955Z,28.55
2019-01-26T13:33:02.044Z,23.50
2019-01-26T13:35:29.808Z,23.98
2019-01-26T13:37:59.040Z,22.30
2019-01-26T13:40:26.903Z,22.40
2019-01-26T13:42:56.400Z,23.20
2019-01-26T13:45:24.472Z,25.10
2019-01-26T13:47:58.034Z,24.00
2019-01-26T13:50:25.933Z,22.55
2019-01-26T13:52:53.976Z,24.25
2019-01-26T13:55:21.779Z,23.67
2019-01-26T13:57:49.850Z,23.18
2019-01-26T14:00:20.910Z,24.07
2019-01-26T14:02:48.634Z,24.57
2019-01-26T14:05:16.876Z,23.30
2019-01-26T14:07:44.874Z,24.25
2019-01-26T14:10:13.809Z,23.80
2019-01-26T14:12:41.753Z,27.42
2019-01-26T14:15:11.181Z,25.52
2019-01-26T14:17:39.131Z,23.73
2019-01-26T14:20:09.894Z,24.40
2019-01-26T14:22:37.689Z,23.98
2019-01-26T14:25:07.454Z,24.87
2019-01-26T14:27:35.492Z,26.97
2019-01-26T14:30:08.523Z,21.68
2019-01-26T14:32:36.859Z,26.30
2019-01-26T14:35:05.280Z,27.70
2019-01-26T14:37:34.331Z,26.35
2019-01-26T14:40:02.199Z,25.25
2019-01-26T14:42:30.060Z,22.58
2019-01-26T14:44:57.848Z,23.65
2019-01-26T14:47:25.782Z,26.10
2019-01-26T14:49:58.623Z,27.70
2019-01-26T14:52:25.322Z,26.05
2019-01-26T14:54:54.702Z,25.17
2019-01-26T14:57:24.865Z,24.43
2019-01-26T14:59:54.943Z,24.85
2019-01-26T15:02:22.893Z,26.70
2019-01-26T15:04:52.218Z,24.12
2019-01-26T15:07:20.207Z,25.85
2019-01-26T15:09:52.588Z,25.65
2019-01-26T15:12:20.514Z,25.20
2019-01-26T15:14:48.598Z,22.13
2019-01-26T15:17:18.012Z,27.82
2019-01-26T15:19:46.216Z,22.30
2019-01-26T15:22:14.286Z,26.87
2019-01-26T15:24:46.344Z,25.52
2019-01-26T15:27:14.107Z,24.45
2019-01-26T15:29:42.523Z,26.50
2019-01-26T15:32:10.315Z,27.37
2019-01-26T15:34:38.197Z,25.72
2019-01-26T15:37:06.202Z,27.10
2019-01-26T15:39:33.918Z,27.25
2019-01-26T15:42:01.844Z,28.05
2019-01-26T15:44:29.971Z,27.17
2019-01-26T15:46:57.850Z,26.93
2019-01-26T15:49:25.847Z,28.83
2019-01-26T15:51:53.771Z,29.98
2019-01-26T15:54:23.249Z,27.93
2019-01-26T15:56:52.283Z,30.97
2019-01-26T15:59:20.103Z,31.50
2019-01-26T16:01:49.142Z,35.73
2019-01-26T16:04:17.190Z,32.10
2019-01-26T16:06:45.039Z,27.27
2019-01-26T16:09:14.168Z,29.45
2019-01-26T16:11:42.267Z,27.35
2019-01-26T16:14:10.199Z,22.50
2019-01-26T16:16:37.986Z,25.97
2019-01-26T16:19:05.956Z,27.62
2019-01-26T16:21:33.842Z,24.30
2019-01-26T16:24:03.577Z,32.40
2019-01-26T16:26:31.661Z,29.40
2019-01-26T16:28:59.450Z,32.93
2019-01-26T16:31:28.577Z,28.80
2019-01-26T16:33:58.493Z,28.75
2019-01-26T16:36:27.568Z,34.05
2019-01-26T16:38:58.847Z,32.95
2019-01-26T16:41:27.027Z,27.98
2019-01-26T16:43:54.872Z,26.87
2019-01-26T16:46:22.620Z,28.45
2019-01-26T16:48:51.374Z,31.73
2019-01-26T16:51:19.183Z,25.77
2019-01-26T16:53:47.948Z,31.70
2019-01-26T16:56:24.123Z,27.07
2019-01-26T16:58:51.866Z,30.77
2019-01-26T17:01:19.703Z,28.92
2019-01-26T17:03:47.543Z,22.90
2019-01-26T17:06:16.755Z,29.18
2019-01-26T17:08:44.556Z,30.72
2019-01-26T17:11:12.453Z,25.97
2019-01-26T17:13:41.520Z,25.37
2019-01-26T17:16:09.345Z,25.30
2019-01-26T17:18:37.884Z,24.52
2019-01-26T17:21:05.970Z,27.05
2019-01-26T17:23:33.844Z,28.07
2019-01-26T17:26:01.630Z,27.48
2019-01-26T17:28:32.790Z,24.85
2019-01-26T17:31:00.646Z,25.80
2019-01-26T17:33:28.553Z,22.65
2019-01-26T17:35:56.474Z,29.57
2019-01-26T17:38:24.613Z,26.10
2019-01-26T17:40:54.463Z,28.60
2019-01-26T17:43:22.510Z,27.75
2019-01-26T17:45:51.501Z,22.93
2019-01-26T17:48:19.417Z,25.55
2019-01-26T17:50:47.273Z,27.52
2019-01-26T17:53:15.253Z,28.75
2019-01-26T17:55:43.036Z,28.10
2019-01-26T17:58:10.977Z,24.57
2019-01-26T18:00:52.478Z,20.70
2019-01-26T18:03:20.546Z,24.20
2019-01-26T18:05:48.700Z,25.75
2019-01-26T18:08:16.684Z,26.27
2019-01-26T18:10:46.705Z,26.68
2019-01-26T18:13:14.427Z,27.00
2019-01-26T18:15:42.353Z,25.12
2019-01-26T18:18:10.292Z,23.60
2019-01-26T18:20:39.772Z,25.88
2019-01-26T18:23:07.637Z,25.65
2019-01-26T18:25:37.676Z,26.12
2019-01-26T18:28:05.895Z,26.95
2019-01-26T18:30:34.849Z,28.55
2019-01-26T18:33:02.643Z,26.60
2019-01-26T18:35:31.529Z,33.45
2019-01-26T18:38:00.638Z,33.65
2019-01-26T18:40:28.457Z,29.63
2019-01-26T18:42:56.357Z,28.80
2019-01-26T18:45:25.163Z,22.85
2019-01-26T18:47:53.267Z,26.20
2019-01-26T18:50:22.986Z,26.97
2019-01-26T18:52:51.954Z,28.57
2019-01-26T18:55:19.889Z,25.25
2019-01-26T18:57:49.945Z,25.65
2019-01-26T19:00:25.798Z,29.60
2019-01-26T19:02:58.760Z,27.70
2019-01-26T19:05:27.479Z,27.45
2019-01-26T19:07:55.220Z,28.25
2019-01-26T19:10:23.267Z,25.88
2019-01-26T19:12:51.208Z,25.90
2019-01-26T19:15:23.837Z,28.87
2019-01-26T19:17:51.776Z,25.60
2019-01-26T19:20:21.001Z,28.35
2019-01-26T19:22:55.008Z,28.77
2019-01-26T19:25:22.726Z,30.05
2019-01-26T19:27:52.610Z,27.87
2019-01-26T19:30:20.724Z,29.00
2019-01-26T19:32:48.925Z,24.75
2019-01-26T19:35:16.671Z,30.60
2019-01-26T19:37:45.741Z,27.02
2019-01-26T19:40:18.757Z,24.87
2019-01-26T19:42:47.707Z,24.60
2019-01-26T19:45:17.842Z,24.95
2019-01-26T19:47:48.223Z,25.25
2019-01-26T19:50:22.903Z,25.23
2019-01-26T19:52:56.748Z,24.67
2019-01-26T19:55:25.011Z,25.62
2019-01-26T19:57:52.965Z,27.00
2019-01-26T20:00:20.852Z,24.35
2019-01-26T20:02:50.086Z,25.80
2019-01-26T20:05:19.116Z,30.20
2019-01-26T20:07:47.531Z,24.63
2019-01-26T20:10:17.687Z,26.17
2019-01-26T20:12:48.277Z,24.30
2019-01-26T20:15:18.320Z,25.10
2019-01-26T20:17:46.363Z,23.98
2019-01-26T20:20:17.291Z,22.55
2019-01-26T20:22:45.522Z,22.42
2019-01-26T20:25:13.776Z,20.90
2019-01-26T20:27:41.987Z,22.55
2019-01-26T20:30:13.937Z,19.87
2019-01-26T20:32:44.892Z,24.30
2019-01-26T20:35:12.810Z,26.20
2019-01-26T20:37:41.652Z,26.42
2019-01-26T20:40:11.853Z,28.90
2019-01-26T20:42:40.604Z,28.35
2019-01-26T20:45:11.421Z,27.10
2019-01-26T20:47:39.318Z,23.00
2019-01-26T20:50:08.676Z,27.13
2019-01-26T20:52:36.725Z,24.10
2019-01-26T20:55:04.971Z,28.92
2019-01-26T20:57:32.808Z,26.02
2019-01-26T21:00:00.802Z,25.15
2019-01-26T21:02:28.696Z,25.68
2019-01-26T21:04:56.715Z,25.65
2019-01-26T21:07:25.281Z,23.35
2019-01-26T21:09:53.718Z,23.07
2019-01-26T21:12:23.712Z,25.57
2019-01-26T21:14:51.856Z,25.60
2019-01-26T21:17:19.808Z,24.77
2019-01-26T21:19:47.653Z,24.43
2019-01-26T21:22:15.560Z,24.45
2019-01-26T21:24:43.835Z,25.72
2019-01-26T21:27:11.709Z,24.80
2019-01-26T21:29:42.676Z,24.45
2019-01-26T21:32:10.725Z,26.45
2019-01-26T21:34:40.667Z,25.10
2019-01-26T21:37:11.113Z,27.58
2019-01-26T21:39:40.340Z,23.10
2019-01-26T21:42:08.256Z,25.70
2019-01-26T21:44:37.141Z,24.63
2019-01-26T21:47:05.314Z,27.60
2019-01-26T21:49:36.087Z,24.18
2019-01-26T21:52:04.067Z,25.25
2019-01-26T21:54:32.964Z,25.60
2019-01-26T21:57:00.834Z,24.00
2019-01-26T21:59:28.731Z,21.95
2019-01-26T22:02:00.361Z,25.30
2019-01-26T22:04:30.520Z,24.47
2019-01-26T22:06:59.272Z,24.65
2019-01-26T22:09:27.204Z,24.67
2019-01-26T22:11:55.010Z,22.58
2019-01-26T22:14:22.963Z,23.47
2019-01-26T22:16:50.702Z,22.67
2019-01-26T22:19:21.894Z,22.95
2019-01-26T22:21:48.629Z,23.65
2019-01-26T22:24:16.416Z,21.25
2019-01-26T22:26:44.248Z,25.10
2019-01-26T22:29:12.106Z,22.50
2019-01-26T22:31:39.998Z,23.73
2019-01-26T22:34:07.934Z,23.05
2019-01-26T22:36:35.633Z,18.73
2019-01-26T22:39:07.434Z,23.92
2019-01-26T22:41:35.746Z,24.50
2019-01-26T22:44:04.167Z,26.57
2019-01-26T22:46:34.109Z,21.97
2019-01-26T22:49:02.013Z,24.20
2019-01-26T22:51:29.916Z,26.12
2019-01-26T22:53:57.762Z,24.05
2019-01-26T22:56:26.902Z,21.97
2019-01-26T22:58:54.751Z,22.35
2019-01-26T23:01:35.369Z,22.60
2019-01-26T23:04:53.535Z,22.80
2019-01-26T23:07:33.094Z,20.75
2019-01-26T23:10:29.222Z,25.95
2019-01-26T23:13:10.613Z,20.80
2019-01-26T23:16:15.416Z,19.85
2019-01-26T23:18:53.592Z,22.67
2019-01-26T23:21:39.827Z,20.02
2019-01-26T23:25:00.710Z,23.15
2019-01-26T23:27:56.264Z,22.40
2019-01-26T23:31:04.749Z,24.15
2019-01-26T23:33:32.619Z,20.97
2019-01-26T23:36:06.548Z,24.60
2019-01-26T23:38:34.564Z,23.02
2019-01-26T23:41:02.373Z,24.52
2019-01-26T23:43:31.880Z,27.77
2019-01-26T23:46:01.918Z,22.35
2019-01-26T23:48:30.035Z,23.73
2019-01-26T23:50:57.839Z,23.00
2019-01-26T23:53:31.636Z,22.22
2019-01-26T23:55:59.707Z,19.50
2019-01-26T23:58:27.700Z,23.62
